createdAt,value
2023-04-30T00:00:53.943Z,101352.53
2023-04-30T00:03:28.516Z,101338.88
2023-04-30T00:05:56.417Z,101364.78
2023-04-30T00:08:27.089Z,101348.16
2023-04-30T00:10:54.824Z,101360.16
2023-04-30T00:13:24.155Z,101365.69
2023-04-30T00:15:54.637Z,101357.03
2023-04-30T00:18:27.688Z,101355.13
2023-04-30T00:20:57.426Z,101350.28
2023-04-30T00:23:28.404Z,101362.31
2023-04-30T00:25:56.414Z,101361.78
2023-04-30T00:28:25.673Z,101372.16
2023-04-30T00:30:53.694Z,101370.34
2023-04-30T00:33:21.724Z,101376.47
2023-04-30T00:35:49.425Z,101379.34
2023-04-30T00:38:17.660Z,101365.97
2023-04-30T00:40:46.557Z,101383.25
2023-04-30T00:43:14.552Z,101379.47
2023-04-30T00:45:44.381Z,101377.56
2023-04-30T00:48:18.908Z,101373.47
2023-04-30T00:50:46.766Z,101386.75
2023-04-30T00:53:17.005Z,101389.63
2023-04-30T00:55:53.043Z,101387.72
2023-04-30T00:58:21.335Z,101389.50
2023-04-30T01:00:51.908Z,101386.47
2023-04-30T01:03:24.205Z,101380.56
2023-04-30T01:05:53.783Z,101389.22
2023-04-30T01:08:23.697Z,101373.81
2023-04-30T01:10:57.331Z,101387.31
2023-04-30T01:13:31.524Z,101385.84
2023-04-30T01:16:10.715Z,101383.94
2023-04-30T01:18:45.075Z,101384.56
2023-04-30T01:21:16.494Z,101368.66
2023-04-30T01:24:20.177Z,101369.31
2023-04-30T01:27:07.643Z,101388.91
2023-04-30T01:29:39.061Z,101380.50
2023-04-30T01:32:06.890Z,101380.59
2023-04-30T01:34:34.763Z,101386.94
2023-04-30T01:37:17.390Z,101383.53
2023-04-30T01:40:09.701Z,101376.47
2023-04-30T01:42:43.263Z,101380.06
2023-04-30T01:45:24.086Z,101375.09
2023-04-30T01:47:58.043Z,101377.22
2023-04-30T01:50:33.031Z,101374.50
2023-04-30T01:53:03.222Z,101378.38
2023-04-30T01:55:37.043Z,101384.41
2023-04-30T01:58:07.980Z,101377.44
2023-04-30T02:00:37.175Z,101372.16
2023-04-30T02:03:05.222Z,101373.31
2023-04-30T02:05:33.103Z,101369.22
2023-04-30T02:08:01.426Z,101377.00
2023-04-30T02:10:30.692Z,101372.06
2023-04-30T02:12:58.598Z,101375.56
2023-04-30T02:15:27.353Z,101383.56
2023-04-30T02:17:56.552Z,101372.81
2023-04-30T02:20:24.375Z,101378.50
2023-04-30T02:22:52.279Z,101384.19
2023-04-30T02:25:20.032Z,101392.63
2023-04-30T02:27:47.913Z,101378.72
2023-04-30T02:30:15.738Z,101382.28
2023-04-30T02:32:43.686Z,101376.19
2023-04-30T02:35:13.004Z,101382.84
2023-04-30T02:37:40.892Z,101377.31
2023-04-30T02:40:10.396Z,101390.31
2023-04-30T02:42:38.572Z,101386.06
2023-04-30T02:45:07.392Z,101393.25
2023-04-30T02:47:35.205Z,101388.72
2023-04-30T02:50:04.016Z,101388.63
2023-04-30T02:52:33.344Z,101385.66
2023-04-30T02:55:01.192Z,101386.50
2023-04-30T02:57:28.998Z,101389.53
2023-04-30T02:59:57.243Z,101392.06
2023-04-30T03:02:25.634Z,101392.53
2023-04-30T03:04:53.636Z,101390.94
2023-04-30T03:07:22.050Z,101390.38
2023-04-30T03:09:51.385Z,101372.09
2023-04-30T03:12:19.174Z,101389.31
2023-04-30T03:14:46.899Z,101390.78
2023-04-30T03:17:14.914Z,101387.94
2023-04-30T03:19:42.832Z,101395.22
2023-04-30T03:22:11.704Z,101393.63
2023-04-30T03:24:39.507Z,101391.38
2023-04-30T03:27:10.040Z,101393.19
2023-04-30T03:29:37.916Z,101381.16
2023-04-30T03:32:08.123Z,101385.91
2023-04-30T03:34:35.982Z,101387.63
2023-04-30T03:37:03.871Z,101391.09
2023-04-30T03:39:31.658Z,101391.38
2023-04-30T03:41:59.420Z,101395.72
2023-04-30T03:44:28.785Z,101396.97
2023-04-30T03:46:56.585Z,101387.50
2023-04-30T03:49:24.269Z,101389.56
2023-04-30T03:51:52.108Z,101398.44
2023-04-30T03:54:19.902Z,101397.97
2023-04-30T03:56:48.001Z,101398.44
2023-04-30T03:59:15.822Z,101392.75
2023-04-30T04:01:45.040Z,101392.13
2023-04-30T04:04:13.317Z,101382.81
2023-04-30T04:06:41.226Z,101394.84
2023-04-30T04:09:09.092Z,101393.72
2023-04-30T04:11:36.832Z,101392.97
2023-04-30T04:14:04.608Z,101392.41
2023-04-30T04:16:32.659Z,101390.72
2023-04-30T04:19:02.007Z,101397.56
2023-04-30T04:21:30.278Z,101400.31
2023-04-30T04:23:58.820Z,101409.81
2023-04-30T04:26:29.159Z,101409.81
2023-04-30T04:28:57.020Z,101410.25
2023-04-30T04:31:25.089Z,101410.03
2023-04-30T04:33:58.128Z,101410.25
2023-04-30T04:36:28.708Z,101405.38
2023-04-30T04:38:57.767Z,101414.78
2023-04-30T04:41:26.631Z,101410.88
2023-04-30T04:43:54.437Z,101410.03
2023-04-30T04:46:22.566Z,101411.91
2023-04-30T04:48:53.067Z,101413.63
2023-04-30T04:51:20.937Z,101406.13
2023-04-30T04:53:51.010Z,101411.72
2023-04-30T04:56:19.684Z,101412.38
2023-04-30T04:58:48.345Z,101410.28
2023-04-30T05:01:16.527Z,101407.22
2023-04-30T05:03:47.541Z,101406.25
2023-04-30T05:06:15.719Z,101397.28
2023-04-30T05:08:43.653Z,101418.09
2023-04-30T05:11:14.210Z,101404.28
2023-04-30T05:13:43.345Z,101414.72
2023-04-30T05:16:11.359Z,101421.69
2023-04-30T05:18:39.247Z,101419.34
2023-04-30T05:21:07.123Z,101419.34
2023-04-30T05:23:34.952Z,101429.91
2023-04-30T05:26:03.242Z,101405.41
2023-04-30T05:28:32.382Z,101441.19
2023-04-30T05:31:00.140Z,101440.09
2023-04-30T05:33:27.894Z,101431.97
2023-04-30T05:35:55.683Z,101443.03
2023-04-30T05:38:23.965Z,101442.84
2023-04-30T05:40:51.676Z,101443.78
2023-04-30T05:43:20.609Z,101439.47
2023-04-30T05:45:49.842Z,101430.28
2023-04-30T05:48:17.774Z,101451.91
2023-04-30T05:50:45.620Z,101446.63
2023-04-30T05:53:14.402Z,101444.66
2023-04-30T05:55:42.272Z,101460.28
2023-04-30T05:58:10.003Z,101462.72
2023-04-30T06:00:39.032Z,101457.22
2023-04-30T06:03:08.819Z,101455.09
2023-04-30T06:05:36.805Z,101458.28
2023-04-30T06:08:04.720Z,101457.88
2023-04-30T06:10:32.858Z,101434.63
2023-04-30T06:13:00.622Z,101452.91
2023-04-30T06:15:28.564Z,101457.03
2023-04-30T06:17:56.344Z,101457.03
2023-04-30T06:20:27.269Z,101455.75
2023-04-30T06:22:55.149Z,101452.78
2023-04-30T06:25:23.081Z,101442.97
2023-04-30T06:27:51.618Z,101451.53
2023-04-30T06:30:22.158Z,101446.13
2023-04-30T06:32:49.923Z,101449.50
2023-04-30T06:35:17.691Z,101444.22
2023-04-30T06:37:47.019Z,101438.81
2023-04-30T06:40:15.079Z,101438.41
2023-04-30T06:42:42.819Z,101446.97
2023-04-30T06:45:12.356Z,101451.78
2023-04-30T06:47:42.596Z,101440.50
2023-04-30T06:50:11.106Z,101443.88
2023-04-30T06:52:39.257Z,101440.91
2023-04-30T06:55:09.458Z,101443.66
2023-04-30T06:57:37.801Z,101434.38
2023-04-30T07:00:06.454Z,101444.25
2023-04-30T07:02:34.357Z,101450.81
2023-04-30T07:05:02.186Z,101449.59
2023-04-30T07:07:29.927Z,101451.19
2023-04-30T07:09:57.938Z,101447.28
2023-04-30T07:12:27.375Z,101448.59
2023-04-30T07:14:57.474Z,101441.53
2023-04-30T07:17:27.616Z,101442.03
2023-04-30T07:19:58.742Z,101440.75
2023-04-30T07:22:29.377Z,101437.06
2023-04-30T07:24:57.092Z,101436.53
2023-04-30T07:27:25.248Z,101438.31
2023-04-30T07:29:56.605Z,101444.84
2023-04-30T07:32:27.071Z,101447.00
2023-04-30T07:34:59.847Z,101447.31
2023-04-30T07:37:27.821Z,101443.22
2023-04-30T07:39:55.783Z,101440.59
2023-04-30T07:42:23.882Z,101442.56
2023-04-30T07:44:59.188Z,101436.06
2023-04-30T07:47:27.153Z,101439.22
2023-04-30T07:49:55.126Z,101445.13
2023-04-30T07:52:23.068Z,101449.09
2023-04-30T07:54:50.956Z,101441.28
2023-04-30T07:57:18.704Z,101436.13
2023-04-30T07:59:46.463Z,101435.16
2023-04-30T08:02:15.695Z,101441.88
2023-04-30T08:04:43.419Z,101437.81
2023-04-30T08:07:11.260Z,101431.78
2023-04-30T08:09:38.981Z,101437.59
2023-04-30T08:12:07.048Z,101439.03
2023-04-30T08:14:35.788Z,101441.22
2023-04-30T08:17:03.622Z,101427.84
2023-04-30T08:19:32.732Z,101437.38
2023-04-30T08:22:01.065Z,101442.66
2023-04-30T08:24:28.809Z,101435.94
2023-04-30T08:26:56.639Z,101438.34
2023-04-30T08:29:24.418Z,101442.94
2023-04-30T08:31:52.345Z,101436.06
2023-04-30T08:34:20.069Z,101433.91
2023-04-30T08:36:49.131Z,101440.41
2023-04-30T08:39:16.901Z,101420.78
2023-04-30T08:41:47.721Z,101433.06
2023-04-30T08:44:15.430Z,101436.66
2023-04-30T08:46:44.653Z,101424.75
2023-04-30T08:49:12.520Z,101427.78
2023-04-30T08:51:41.077Z,101432.59
2023-04-30T08:54:13.769Z,101431.16
2023-04-30T08:56:42.052Z,101428.97
2023-04-30T08:59:10.100Z,101428.97
2023-04-30T09:01:38.111Z,101419.88
2023-04-30T09:04:06.895Z,101418.69
2023-04-30T09:06:34.715Z,101424.72
2023-04-30T09:09:12.829Z,101420.44
2023-04-30T09:11:43.702Z,101416.84
2023-04-30T09:14:11.464Z,101420.44
2023-04-30T09:16:49.967Z,101414.66
2023-04-30T09:19:25.792Z,101396.34
2023-04-30T09:21:53.734Z,101418.72
2023-04-30T09:24:23.659Z,101411.25
2023-04-30T09:26:52.354Z,101406.53
2023-04-30T09:29:20.282Z,101406.72
2023-04-30T09:31:48.690Z,101401.41
2023-04-30T09:34:16.650Z,101398.75
2023-04-30T09:36:55.141Z,101385.13
2023-04-30T09:39:25.629Z,101386.03
2023-04-30T09:41:53.421Z,101384.09
2023-04-30T09:44:29.131Z,101381.78
2023-04-30T09:46:58.508Z,101382.53
2023-04-30T09:49:27.325Z,101383.78
2023-04-30T09:51:57.141Z,101382.44
2023-04-30T09:54:28.794Z,101383.00
2023-04-30T09:56:59.076Z,101376.59
2023-04-30T09:59:32.016Z,101372.97
2023-04-30T10:02:02.050Z,101359.88
2023-04-30T10:04:33.333Z,101332.06
2023-04-30T10:07:05.071Z,101371.16
2023-04-30T10:09:41.986Z,101368.94
2023-04-30T10:12:15.781Z,101363.38
2023-04-30T10:14:49.591Z,101358.31
2023-04-30T10:17:18.988Z,101352.84
2023-04-30T10:19:49.600Z,101369.78
2023-04-30T10:22:17.695Z,101357.78
2023-04-30T10:24:47.098Z,101358.09
2023-04-30T10:27:15.176Z,101360.38
2023-04-30T10:29:43.920Z,101352.94
2023-04-30T10:32:14.017Z,101363.28
2023-04-30T10:34:54.268Z,101356.44
2023-04-30T10:37:29.548Z,101356.44
2023-04-30T10:39:58.853Z,101354.09
2023-04-30T10:42:26.787Z,101349.75
2023-04-30T10:44:54.576Z,101347.63
2023-04-30T10:47:30.089Z,101343.81
2023-04-30T10:50:04.229Z,101329.00
2023-04-30T10:52:32.173Z,101336.31
2023-04-30T10:55:05.993Z,101318.97
2023-04-30T10:57:41.359Z,101335.13
2023-04-30T11:00:25.707Z,101306.84
2023-04-30T11:02:58.118Z,101323.84
2023-04-30T11:05:38.833Z,101326.69
2023-04-30T11:08:07.319Z,101318.63
2023-04-30T11:10:36.855Z,101320.00
2023-04-30T11:13:06.789Z,101312.41
2023-04-30T11:15:40.608Z,101297.22
2023-04-30T11:18:09.488Z,101293.19
2023-04-30T11:20:41.246Z,101290.81
2023-04-30T11:23:10.088Z,101293.81
2023-04-30T11:25:43.676Z,101297.66
2023-04-30T11:28:16.430Z,101301.38
2023-04-30T11:30:52.188Z,101300.84
2023-04-30T11:33:20.823Z,101308.16
2023-04-30T11:35:52.063Z,101302.53
2023-04-30T11:38:22.618Z,101292.47
2023-04-30T11:40:52.223Z,101298.69
2023-04-30T11:43:24.336Z,101304.44
2023-04-30T11:46:08.324Z,101301.34
2023-04-30T11:48:37.594Z,101293.47
2023-04-30T11:51:07.393Z,101294.38
2023-04-30T11:53:35.440Z,101297.22
2023-04-30T11:56:06.405Z,101290.59
2023-04-30T11:58:39.285Z,101289.06
2023-04-30T12:01:09.504Z,101290.50
2023-04-30T12:03:43.859Z,101289.19
2023-04-30T12:06:13.052Z,101287.22
2023-04-30T12:08:44.675Z,101275.53
2023-04-30T12:11:25.759Z,101279.97
2023-04-30T12:13:58.448Z,101281.63
2023-04-30T12:16:26.555Z,101277.31
2023-04-30T12:18:54.394Z,101275.59
2023-04-30T12:21:23.410Z,101272.00
2023-04-30T12:23:51.545Z,101252.56
2023-04-30T12:26:37.132Z,101271.53
2023-04-30T12:29:06.033Z,101267.09
2023-04-30T12:31:34.655Z,101260.38
2023-04-30T12:34:06.851Z,101256.75
2023-04-30T12:36:36.792Z,101248.50
2023-04-30T12:39:08.730Z,101252.81
2023-04-30T12:41:45.929Z,101248.09
2023-04-30T12:44:21.369Z,101242.38
2023-04-30T12:46:50.404Z,101245.09
2023-04-30T12:49:25.756Z,101235.97
2023-04-30T12:51:57.728Z,101238.28
2023-04-30T12:54:29.895Z,101238.53
2023-04-30T12:57:01.965Z,101240.25
2023-04-30T12:59:30.177Z,101221.63
2023-04-30T13:02:07.453Z,101230.88
2023-04-30T13:04:35.998Z,101233.72
2023-04-30T13:07:04.679Z,101224.09
2023-04-30T13:09:32.867Z,101221.31
2023-04-30T13:12:02.279Z,101219.50
2023-04-30T13:14:30.344Z,101212.97
2023-04-30T13:16:58.060Z,101221.84
2023-04-30T13:19:26.397Z,101209.91
2023-04-30T13:21:54.162Z,101225.19
2023-04-30T13:24:21.989Z,101222.63
2023-04-30T13:26:50.127Z,101205.84
2023-04-30T13:29:20.775Z,101207.56
2023-04-30T13:31:49.292Z,101207.97
2023-04-30T13:34:17.352Z,101214.00
2023-04-30T13:36:46.800Z,101209.88
2023-04-30T13:39:14.865Z,101194.69
2023-04-30T13:41:42.746Z,101200.06
2023-04-30T13:44:10.522Z,101199.66
2023-04-30T13:46:42.273Z,101193.09
2023-04-30T13:49:10.136Z,101195.97
2023-04-30T13:51:38.107Z,101190.59
2023-04-30T13:54:05.861Z,101179.91
2023-04-30T13:56:33.697Z,101191.19
2023-04-30T13:59:01.508Z,101187.84
2023-04-30T14:01:29.502Z,101177.66
2023-04-30T14:03:58.967Z,101173.66
2023-04-30T14:06:26.875Z,101163.03
2023-04-30T14:08:54.626Z,101150.53
2023-04-30T14:11:22.522Z,101155.53
2023-04-30T14:13:50.394Z,101158.88
2023-04-30T14:16:19.485Z,101145.94
2023-04-30T14:18:47.495Z,101148.88
2023-04-30T14:21:16.650Z,101147.56
2023-04-30T14:23:46.542Z,101144.91
2023-04-30T14:26:14.430Z,101146.41
2023-04-30T14:28:42.187Z,101138.09
2023-04-30T14:31:10.591Z,101140.03
2023-04-30T14:33:38.456Z,101135.97
2023-04-30T14:36:07.565Z,101126.84
2023-04-30T14:38:36.710Z,101133.53
2023-04-30T14:41:04.541Z,101127.69
2023-04-30T14:43:32.287Z,101123.13
2023-04-30T14:46:00.107Z,101109.75
2023-04-30T14:48:28.081Z,101120.38
2023-04-30T14:50:55.834Z,101124.13
2023-04-30T14:53:23.650Z,101117.66
2023-04-30T14:55:52.929Z,101120.25
2023-04-30T14:58:21.151Z,101116.53
2023-04-30T15:00:49.306Z,101120.47
2023-04-30T15:03:17.691Z,101110.22
2023-04-30T15:05:46.145Z,101105.41
2023-04-30T15:08:14.110Z,101107.34
2023-04-30T15:10:41.940Z,101101.97
2023-04-30T15:13:14.216Z,101104.00
2023-04-30T15:15:42.243Z,101101.59
2023-04-30T15:18:10.659Z,101104.66
2023-04-30T15:20:38.595Z,101096.53
2023-04-30T15:23:06.658Z,101098.81
2023-04-30T15:25:34.669Z,101098.88
2023-04-30T15:28:03.170Z,101096.28
2023-04-30T15:30:32.349Z,101091.16
2023-04-30T15:33:00.188Z,101084.16
2023-04-30T15:35:34.234Z,101084.34
2023-04-30T15:38:01.987Z,101085.69
2023-04-30T15:40:29.670Z,101081.69
2023-04-30T15:42:57.533Z,101080.03
2023-04-30T15:45:27.445Z,101078.69
2023-04-30T15:47:56.751Z,101076.19
2023-04-30T15:50:24.636Z,101072.84
2023-04-30T15:52:52.433Z,101076.31
2023-04-30T15:55:20.284Z,101072.13
2023-04-30T15:57:48.246Z,101076.34
2023-04-30T16:00:16.873Z,101063.00
2023-04-30T16:02:44.715Z,101047.41
2023-04-30T16:05:13.907Z,101068.03
2023-04-30T16:07:43.897Z,101071.97
2023-04-30T16:10:12.496Z,101066.00
2023-04-30T16:12:40.394Z,101060.38
2023-04-30T16:15:10.084Z,101058.78
2023-04-30T16:17:38.040Z,101062.66
2023-04-30T16:20:07.213Z,101052.19
2023-04-30T16:22:39.208Z,101036.34
2023-04-30T16:25:09.888Z,101050.88
2023-04-30T16:27:37.718Z,101036.19
2023-04-30T16:30:06.599Z,101037.53
2023-04-30T16:32:34.618Z,101042.59
2023-04-30T16:35:02.502Z,101046.44
2023-04-30T16:37:31.077Z,101037.56
2023-04-30T16:40:01.467Z,101041.94
2023-04-30T16:42:29.983Z,101036.25
2023-04-30T16:44:57.984Z,101033.63
2023-04-30T16:47:25.657Z,101037.97
2023-04-30T16:49:53.863Z,101029.59
2023-04-30T16:52:21.776Z,101032.09
2023-04-30T16:54:49.673Z,101026.94
2023-04-30T16:57:18.809Z,101016.25
2023-04-30T16:59:46.767Z,101028.13
2023-04-30T17:02:14.608Z,101016.75
2023-04-30T17:04:42.489Z,101033.44
2023-04-30T17:07:10.284Z,101026.94
2023-04-30T17:09:38.671Z,101027.94
2023-04-30T17:12:07.943Z,101025.59
2023-04-30T17:14:37.293Z,101012.88
2023-04-30T17:17:05.095Z,101016.06
2023-04-30T17:19:32.869Z,101008.56
2023-04-30T17:22:01.457Z,101003.56
2023-04-30T17:24:29.277Z,101006.56
2023-04-30T17:27:00.943Z,101003.38
2023-04-30T17:29:28.666Z,100998.88
2023-04-30T17:31:57.875Z,100992.22
2023-04-30T17:34:27.235Z,100987.81
2023-04-30T17:36:54.997Z,100997.84
2023-04-30T17:39:22.765Z,100989.69
2023-04-30T17:41:50.559Z,100997.84
2023-04-30T17:44:19.393Z,100988.16
2023-04-30T17:46:47.326Z,101000.16
2023-04-30T17:49:16.551Z,100994.81
2023-04-30T17:51:44.338Z,100994.63
2023-04-30T17:54:12.122Z,100998.81
2023-04-30T17:56:40.385Z,100992.13
2023-04-30T17:59:32.859Z,100972.41
2023-04-30T18:02:02.800Z,100995.28
2023-04-30T18:04:35.058Z,100994.75
2023-04-30T18:07:02.814Z,100982.22
2023-04-30T18:09:32.197Z,100989.72
2023-04-30T18:12:00.247Z,100989.22
2023-04-30T18:14:28.270Z,100989.31
2023-04-30T18:16:56.170Z,100985.97
2023-04-30T18:19:23.972Z,100981.44
2023-04-30T18:21:55.820Z,100987.44
2023-04-30T18:24:27.700Z,100986.22
2023-04-30T18:26:55.856Z,100989.66
2023-04-30T18:29:27.135Z,100983.16
2023-04-30T18:31:54.929Z,100991.16
2023-04-30T18:34:23.073Z,100988.13
2023-04-30T18:36:50.877Z,100980.78
2023-04-30T18:39:20.144Z,100986.06
2023-04-30T18:41:47.823Z,100990.34
2023-04-30T18:44:15.807Z,100980.16
2023-04-30T18:46:43.535Z,100977.97
2023-04-30T18:49:11.437Z,100982.91
2023-04-30T18:51:39.172Z,100978.22
2023-04-30T18:54:06.971Z,100979.38
2023-04-30T18:56:36.940Z,100984.47
2023-04-30T18:59:04.902Z,100981.31
2023-04-30T19:01:32.708Z,100983.25
2023-04-30T19:04:01.357Z,100988.19
2023-04-30T19:06:29.143Z,100982.81
2023-04-30T19:08:58.728Z,100991.94
2023-04-30T19:11:27.148Z,100984.25
2023-04-30T19:13:56.265Z,100980.91
2023-04-30T19:16:25.071Z,100991.50
2023-04-30T19:18:52.792Z,100979.88
2023-04-30T19:21:20.654Z,100990.13
2023-04-30T19:23:48.505Z,100979.41
2023-04-30T19:26:16.377Z,100995.22
2023-04-30T19:28:44.305Z,100999.19
2023-04-30T19:31:13.542Z,100996.97
2023-04-30T19:33:42.917Z,101001.75
2023-04-30T19:36:10.794Z,101000.22
2023-04-30T19:38:38.782Z,101006.38
2023-04-30T19:41:07.296Z,101005.69
2023-04-30T19:43:35.040Z,101005.03
2023-04-30T19:46:03.407Z,100996.81
2023-04-30T19:48:32.530Z,101011.78
2023-04-30T19:51:03.347Z,101009.72
2023-04-30T19:53:31.457Z,101006.38
2023-04-30T19:55:59.812Z,101006.69
2023-04-30T19:58:27.600Z,101000.69
2023-04-30T20:00:55.929Z,101001.66
2023-04-30T20:03:25.167Z,101001.97
2023-04-30T20:05:54.500Z,100998.75
2023-04-30T20:08:23.009Z,100983.75
2023-04-30T20:10:51.230Z,101002.88
2023-04-30T20:13:20.901Z,101006.81
2023-04-30T20:16:06.145Z,101004.03
2023-04-30T20:18:37.139Z,101001.53
2023-04-30T20:21:06.299Z,100998.19
2023-04-30T20:23:34.246Z,101007.97
2023-04-30T20:26:02.686Z,101000.41
2023-04-30T20:28:31.080Z,100997.06
2023-04-30T20:30:58.888Z,100999.16
2023-04-30T20:33:28.714Z,101002.16
2023-04-30T20:35:58.104Z,101006.91
2023-04-30T20:38:27.416Z,101003.00
2023-04-30T20:40:55.380Z,100995.47
2023-04-30T20:43:23.105Z,100997.75
2023-04-30T20:45:50.811Z,100999.56
2023-04-30T20:48:18.804Z,101000.00
2023-04-30T20:50:46.865Z,100996.78
2023-04-30T20:53:15.334Z,101004.09
2023-04-30T20:55:44.502Z,101000.72
2023-04-30T20:58:14.679Z,100998.06
2023-04-30T21:00:42.474Z,101000.19
2023-04-30T21:03:10.542Z,100999.34
2023-04-30T21:05:38.497Z,100992.34
2023-04-30T21:08:06.254Z,100993.47
2023-04-30T21:10:36.831Z,100995.28
2023-04-30T21:13:11.238Z,100992.91
2023-04-30T21:15:40.966Z,100960.81
2023-04-30T21:18:09.267Z,100992.91
2023-04-30T21:20:37.498Z,100991.22
2023-04-30T21:23:08.185Z,100986.94
2023-04-30T21:25:37.335Z,100989.16
2023-04-30T21:28:07.124Z,100977.75
2023-04-30T21:30:36.589Z,100979.81
2023-04-30T21:33:04.713Z,100984.56
2023-04-30T21:35:34.061Z,100983.34
2023-04-30T21:38:01.859Z,100978.31
2023-04-30T21:40:33.659Z,100982.22
2023-04-30T21:43:01.771Z,100972.84
2023-04-30T21:45:32.634Z,100976.81
2023-04-30T21:48:00.531Z,100969.38
2023-04-30T21:50:28.581Z,100970.38
2023-04-30T21:52:58.658Z,100966.31
2023-04-30T21:55:27.413Z,100964.34
2023-04-30T21:57:56.112Z,100964.38
2023-04-30T22:00:24.508Z,100960.47
2023-04-30T22:02:53.823Z,100953.91
2023-04-30T22:05:21.953Z,100955.97
2023-04-30T22:07:49.833Z,100959.50
2023-04-30T22:10:34.542Z,100951.78
2023-04-30T22:13:02.459Z,100952.63
2023-04-30T22:15:47.137Z,100931.28
2023-04-30T22:18:20.927Z,100937.56
2023-04-30T22:20:49.871Z,100952.91
2023-04-30T22:23:21.101Z,100949.03
2023-04-30T22:25:50.391Z,100941.19
2023-04-30T22:28:19.383Z,100938.69
2023-04-30T22:30:48.156Z,100938.94
2023-04-30T22:33:16.139Z,100939.22
2023-04-30T22:35:46.837Z,100930.28
2023-04-30T22:38:14.698Z,100941.03
2023-04-30T22:40:42.777Z,100931.41
2023-04-30T22:43:11.025Z,100928.75
2023-04-30T22:45:40.482Z,100935.72
2023-04-30T22:48:10.656Z,100919.69
2023-04-30T22:50:39.327Z,100923.31
2023-04-30T22:53:08.679Z,100938.66
2023-04-30T22:55:38.880Z,100937.16
2023-04-30T22:58:06.696Z,100932.69
2023-04-30T23:00:34.689Z,100930.44
2023-04-30T23:03:02.509Z,100914.69
2023-04-30T23:05:30.390Z,100931.97
2023-04-30T23:07:58.186Z,100934.91
2023-04-30T23:10:30.620Z,100930.56
2023-04-30T23:12:58.983Z,100927.22
2023-04-30T23:15:29.443Z,100936.03
2023-04-30T23:17:58.232Z,100934.19
2023-04-30T23:20:26.473Z,100937.56
2023-04-30T23:22:54.166Z,100941.31
2023-04-30T23:25:26.859Z,100941.47
2023-04-30T23:27:59.561Z,100937.84
2023-04-30T23:30:38.304Z,100932.66
2023-04-30T23:33:06.101Z,100929.03
2023-04-30T23:35:34.170Z,100913.84
2023-04-30T23:38:01.846Z,100923.88
2023-04-30T23:40:32.637Z,100921.09
2023-04-30T23:43:02.095Z,100923.31
2023-04-30T23:45:29.842Z,100919.41
2023-04-30T23:47:57.657Z,100915.63
2023-04-30T23:50:25.821Z,100915.50
2023-04-30T23:52:55.882Z,100902.50
2023-04-30T23:55:23.598Z,100911.72
2023-04-30T23:57:51.369Z,100901.81
